Time;durP1;ratioP1;P1;durP2;ratioP2;P2;SDS_P1;SDS_P2;PMS_P1;PMS_P2;Temp;Humidity;BMP_temperature;BMP_pressure;BME280_temperature;BME280_humidity;BME280_pressure;Samples;Min_cycle;Max_cycle;Signal;HPM_P1;HPM_P2
2020/12/29 00:01:50;;;;;;;10.45;6.75;;;6.90;80.90;;;;;;4990183;28;20021;-88
2020/12/29 00:04:17;;;;;;;9.23;5.50;;;7.00;80.80;;;;;;4990493;28;20046;-88
2020/12/29 00:06:50;;;;;;;9.80;6.28;;;7.00;80.80;;;;;;4990021;28;20113;-88
2020/12/29 00:09:17;;;;;;;10.68;6.82;;;7.00;80.70;;;;;;4990798;28;20027;-86
2020/12/29 00:11:44;;;;;;;9.02;5.70;;;7.10;80.60;;;;;;4992242;28;20045;-87
2020/12/29 00:14:11;;;;;;;9.88;6.32;;;7.10;80.40;;;;;;4992264;28;20482;-86
2020/12/29 00:16:36;;;;;;;8.40;6.38;;;7.10;80.60;;;;;;4990160;28;20037;-87
2020/12/29 00:19:03;;;;;;;9.55;6.50;;;7.10;80.30;;;;;;4989154;28;20034;-86
2020/12/29 00:21:29;;;;;;;9.32;6.07;;;7.20;80.00;;;;;;4990281;28;20018;-89
2020/12/29 00:23:55;;;;;;;9.98;6.45;;;7.20;80.10;;;;;;4958859;28;20050;-88
2020/12/29 00:26:25;;;;;;;10.55;6.53;;;7.20;80.00;;;;;;4992805;28;20516;-88
2020/12/29 00:28:51;;;;;;;8.52;6.07;;;7.30;79.90;;;;;;4988541;28;20069;-86
2020/12/29 00:31:22;;;;;;;9.27;6.20;;;7.30;79.80;;;;;;5004231;28;20042;-88
2020/12/29 00:33:49;;;;;;;10.90;6.68;;;7.30;79.60;;;;;;4989878;28;20080;-87
2020/12/29 00:36:16;;;;;;;10.70;6.95;;;7.30;79.60;;;;;;4991159;28;20409;-90
2020/12/29 00:38:42;;;;;;;10.38;6.05;;;7.40;79.60;;;;;;4991673;28;20023;-89
2020/12/29 00:41:09;;;;;;;9.65;6.43;;;7.40;79.40;;;;;;4991456;28;20537;-88
2020/12/29 00:43:35;;;;;;;11.60;6.55;;;7.40;79.40;;;;;;4969050;28;20065;-87
2020/12/29 00:46:27;;;;;;;9.80;6.47;;;7.40;79.40;;;;;;4989696;28;20027;-86
2020/12/29 00:48:53;;;;;;;9.63;5.82;;;7.40;79.40;;;;;;4986907;28;20034;-88
2020/12/29 00:51:20;;;;;;;7.53;5.32;;;7.40;79.40;;;;;;4987675;28;20382;-88
2020/12/29 00:53:47;;;;;;;9.95;6.70;;;7.40;79.50;;;;;;4984546;28;20928;-87
2020/12/29 00:56:12;;;;;;;10.45;6.00;;;7.40;79.20;;;;;;4973855;28;20061;-89
2020/12/29 00:58:39;;;;;;;10.65;6.30;;;7.40;79.20;;;;;;4976291;28;20030;-88
2020/12/29 01:01:07;;;;;;;7.57;5.60;;;7.40;78.90;;;;;;4973908;28;20119;-87
2020/12/29 01:03:33;;;;;;;7.63;5.40;;;7.40;78.90;;;;;;4988916;28;20541;-86
2020/12/29 01:05:59;;;;;;;8.70;5.15;;;7.40;79.00;;;;;;4989390;28;20470;-86
2020/12/29 01:08:24;;;;;;;9.50;5.55;;;7.40;79.00;;;;;;4993416;28;20029;-89
2020/12/29 01:10:55;;;;;;;9.88;5.38;;;7.30;79.10;;;;;;4988946;28;20050;-88
2020/12/29 01:13:21;;;;;;;8.23;5.30;;;7.40;78.90;;;;;;4989224;28;20081;-86
2020/12/29 01:15:48;;;;;;;8.68;5.75;;;7.40;78.70;;;;;;4989467;28;20023;-86
2020/12/29 01:18:14;;;;;;;9.07;5.65;;;7.40;78.90;;;;;;4987842;28;20544;-84
2020/12/29 01:20:40;;;;;;;10.05;6.03;;;7.30;79.10;;;;;;4990934;28;20097;-85
2020/12/29 01:23:05;;;;;;;7.50;5.20;;;7.20;79.60;;;;;;4990306;28;20034;-86
2020/12/29 01:25:31;;;;;;;7.93;5.90;;;7.20;79.80;;;;;;4990935;28;20022;-89
2020/12/29 01:27:57;;;;;;;8.20;5.80;;;7.20;80.10;;;;;;4990047;28;20478;-88
2020/12/29 01:30:23;;;;;;;8.52;5.78;;;7.20;80.20;;;;;;4986018;28;20560;-86
2020/12/29 01:32:49;;;;;;;13.30;5.47;;;7.10;80.40;;;;;;4974076;28;20018;-85
2020/12/29 01:35:14;;;;;;;9.10;5.20;;;7.10;80.70;;;;;;4992325;28;20048;-86
2020/12/29 01:37:44;;;;;;;9.93;5.35;;;7.10;80.60;;;;;;4990422;28;20030;-86
2020/12/29 01:40:11;;;;;;;7.97;5.10;;;7.10;80.70;;;;;;4989630;28;20031;-86
2020/12/29 01:42:37;;;;;;;9.20;5.43;;;7.10;80.80;;;;;;4988751;28;20059;-86
2020/12/29 01:45:14;;;;;;;9.20;5.72;;;7.20;80.80;;;;;;4988906;28;20031;-85
2020/12/29 01:47:41;;;;;;;10.52;5.68;;;7.10;80.80;;;;;;4991430;28;20018;-90
2020/12/29 01:50:15;;;;;;;10.52;6.15;;;7.10;81.10;;;;;;4990021;28;20022;-87
2020/12/29 01:52:41;;;;;;;10.43;6.75;;;7.10;81.20;;;;;;4988712;28;20089;-85
2020/12/29 01:55:08;;;;;;;9.43;5.85;;;7.10;81.40;;;;;;4988571;28;20454;-85
2020/12/29 01:57:35;;;;;;;9.90;5.57;;;7.00;81.50;;;;;;4973508;28;20192;-86
2020/12/29 02:00:06;;;;;;;8.82;5.20;;;7.00;81.50;;;;;;4992082;28;20030;-86
2020/12/29 02:02:31;;;;;;;;;;;7.00;81.50;;;;;;4992670;28;20061;-85
2020/12/29 02:04:57;;;;;;;8.30;5.15;;;7.00;81.30;;;;;;4993898;28;20395;-85
2020/12/29 02:07:23;;;;;;;8.73;5.53;;;7.00;81.30;;;;;;4992080;28;20397;-88
2020/12/29 02:09:49;;;;;;;7.85;5.45;;;6.90;81.50;;;;;;5003177;28;20046;-86
2020/12/29 02:12:31;;;;;;;8.43;5.93;;;6.90;81.60;;;;;;4985405;28;20026;-88
2020/12/29 02:14:58;;;;;;;8.55;5.53;;;6.90;81.80;;;;;;4973504;28;20026;-85
2020/12/29 02:17:24;;;;;;;8.77;5.20;;;6.90;81.80;;;;;;4996098;28;20029;-88
2020/12/29 02:19:50;;;;;;;9.15;5.88;;;6.90;81.90;;;;;;4976427;28;20374;-88
2020/12/29 02:22:24;;;;;;;7.97;5.22;;;6.90;81.90;;;;;;4992309;28;20104;-86
2020/12/29 02:24:58;;;;;;;11.18;5.35;;;6.80;82.10;;;;;;4984053;28;20752;-85
2020/12/29 02:27:27;;;;;;;9.68;6.57;;;6.80;82.30;;;;;;4991941;28;20114;-90
2020/12/29 02:29:53;;;;;;;8.18;5.07;;;6.80;82.30;;;;;;4992595;28;20544;-85
2020/12/29 02:32:19;;;;;;;8.50;6.13;;;6.80;82.40;;;;;;4995400;28;20033;-89
2020/12/29 02:34:45;;;;;;;13.20;6.22;;;6.80;82.40;;;;;;4993705;28;20134;-88
2020/12/29 02:37:11;;;;;;;8.52;6.15;;;6.80;82.40;;;;;;4992551;28;20089;-86
2020/12/29 02:39:41;;;;;;;10.70;6.30;;;6.80;82.50;;;;;;4993041;28;20506;-85
2020/12/29 02:42:08;;;;;;;10.00;5.78;;;6.80;82.50;;;;;;4989289;28;20161;-85
2020/12/29 02:44:34;;;;;;;11.38;6.13;;;6.80;82.40;;;;;;4994303;28;20088;-87
2020/12/29 02:47:00;;;;;;;7.90;5.32;;;6.90;82.50;;;;;;4984004;28;20031;-88
2020/12/29 02:49:26;;;;;;;8.02;5.32;;;6.90;82.40;;;;;;4988253;28;20034;-86
2020/12/29 02:51:52;;;;;;;7.75;5.10;;;6.90;82.30;;;;;;4993690;28;20033;-85
2020/12/29 02:54:18;;;;;;;10.25;5.90;;;6.90;82.10;;;;;;4976597;28;20034;-88
2020/12/29 02:56:44;;;;;;;8.00;5.30;;;6.90;82.10;;;;;;4993795;28;20113;-87
2020/12/29 02:59:11;;;;;;;8.30;5.50;;;7.00;82.00;;;;;;4992150;28;20035;-88
2020/12/29 03:01:37;;;;;;;10.13;5.63;;;7.00;81.90;;;;;;4992050;28;20022;-87
2020/12/29 03:04:02;;;;;;;11.63;5.68;;;7.00;81.70;;;;;;4992164;28;20049;-87
2020/12/29 03:06:28;;;;;;;8.75;5.97;;;7.00;81.70;;;;;;4975759;28;20026;-88
2020/12/29 03:08:54;;;;;;;9.23;6.25;;;7.00;81.70;;;;;;4973961;28;20383;-86
2020/12/29 03:11:39;;;;;;;7.80;5.13;;;7.00;82.00;;;;;;4992703;28;20027;-89
2020/12/29 03:14:06;;;;;;;9.77;5.45;;;7.00;82.00;;;;;;4977043;28;20478;-86
2020/12/29 03:16:32;;;;;;;8.25;5.18;;;7.00;81.90;;;;;;4992667;28;20550;-86
2020/12/29 03:18:58;;;;;;;11.10;5.55;;;7.00;81.80;;;;;;4977113;28;20101;-85
2020/12/29 03:21:24;;;;;;;7.35;5.05;;;6.90;81.90;;;;;;4983964;28;20023;-84
2020/12/29 03:23:50;;;;;;;7.53;5.40;;;6.90;81.90;;;;;;4990698;28;20035;-89
2020/12/29 03:26:17;;;;;;;7.80;5.45;;;7.00;81.70;;;;;;4993085;28;20026;-87
2020/12/29 03:28:43;;;;;;;9.63;6.20;;;7.00;81.50;;;;;;4991767;28;20034;-85
2020/12/29 03:31:09;;;;;;;7.53;5.32;;;7.10;81.50;;;;;;4990683;28;20019;-89
2020/12/29 03:33:34;;;;;;;10.15;5.25;;;7.10;81.40;;;;;;4976115;28;20554;-88
2020/12/29 03:36:01;;;;;;;8.82;5.97;;;7.10;81.30;;;;;;4990559;28;20049;-87
2020/12/29 03:38:27;;;;;;;7.90;5.18;;;7.10;81.40;;;;;;4994396;28;20101;-89
2020/12/29 03:40:53;;;;;;;9.82;5.93;;;7.10;81.40;;;;;;4991322;28;20034;-87
2020/12/29 03:43:20;;;;;;;9.45;5.90;;;7.10;81.50;;;;;;4990615;28;20097;-88
2020/12/29 03:45:47;;;;;;;8.95;5.47;;;7.10;81.50;;;;;;4989634;28;20022;-87
2020/12/29 03:48:15;;;;;;;9.35;6.07;;;7.10;81.50;;;;;;4990322;28;20113;-87
2020/12/29 03:50:42;;;;;;;10.15;6.07;;;7.10;81.60;;;;;;4992802;28;20022;-87
2020/12/29 03:53:08;;;;;;;8.43;5.72;;;7.10;81.70;;;;;;4991926;28;20037;-88
2020/12/29 03:55:35;;;;;;;10.65;6.03;;;7.10;81.90;;;;;;4991312;28;20031;-87
2020/12/29 03:58:00;;;;;;;8.88;5.97;;;7.10;82.00;;;;;;4990638;28;20022;-88
2020/12/29 04:00:26;;;;;;;9.43;5.80;;;7.10;82.10;;;;;;4988628;28;20037;-88
2020/12/29 04:02:52;;;;;;;9.02;5.70;;;7.00;82.40;;;;;;4991320;28;20089;-85
2020/12/29 04:05:18;;;;;;;7.85;6.07;;;7.00;82.70;;;;;;5008030;28;20030;-88
2020/12/29 04:07:44;;;;;;;8.52;6.13;;;7.00;82.80;;;;;;4990787;28;20077;-87
2020/12/29 04:10:10;;;;;;;12.05;6.53;;;7.00;82.80;;;;;;4992461;28;20042;-87
2020/12/29 04:12:37;;;;;;;9.18;6.35;;;7.00;82.90;;;;;;5004528;28;20022;-87
2020/12/29 04:15:04;;;;;;;10.68;6.60;;;7.00;82.80;;;;;;4989410;28;20031;-87
2020/12/29 04:17:43;;;;;;;9.32;5.85;;;7.00;82.70;;;;;;4989800;28;20121;-90
2020/12/29 04:20:11;;;;;;;9.00;5.88;;;7.00;82.70;;;;;;4991386;28;20554;-87
2020/12/29 04:22:38;;;;;;;7.25;5.85;;;7.00;82.50;;;;;;4989667;28;20026;-88
2020/12/29 04:25:06;;;;;;;7.78;5.75;;;7.10;82.30;;;;;;4990473;28;20117;-88
2020/12/29 04:27:32;;;;;;;9.43;6.20;;;7.00;82.30;;;;;;4992054;28;20023;-89
2020/12/29 04:29:58;;;;;;;12.32;5.68;;;7.10;82.10;;;;;;4988649;28;20034;-87
2020/12/29 04:32:24;;;;;;;10.65;5.35;;;7.10;82.00;;;;;;4990740;28;20379;-88
2020/12/29 04:34:49;;;;;;;7.63;5.78;;;7.20;81.70;;;;;;4985288;28;20023;-88
2020/12/29 04:37:15;;;;;;;7.90;5.60;;;7.20;81.50;;;;;;4985283;28;20050;-87
2020/12/29 04:39:42;;;;;;;9.07;5.35;;;7.20;81.30;;;;;;4989755;28;20462;-89
2020/12/29 04:42:13;;;;;;;8.98;6.18;;;7.20;81.20;;;;;;4989394;28;20037;-88
2020/12/29 04:44:40;;;;;;;12.35;6.80;;;7.30;81.30;;;;;;4989575;28;20084;-87
2020/12/29 04:47:13;;;;;;;10.20;6.80;;;7.30;81.20;;;;;;4973516;28;20026;-87
2020/12/29 04:49:39;;;;;;;9.93;5.60;;;7.30;81.20;;;;;;4991220;28;20034;-88
2020/12/29 04:52:07;;;;;;;10.68;6.22;;;7.40;81.10;;;;;;4990170;28;20014;-89
2020/12/29 04:54:34;;;;;;;9.60;5.50;;;7.40;80.90;;;;;;4988582;28;20109;-88
2020/12/29 04:57:02;;;;;;;9.02;6.03;;;7.50;80.90;;;;;;4988041;28;20023;-88
2020/12/29 04:59:29;;;;;;;8.45;6.05;;;7.50;80.60;;;;;;4991684;28;20053;-88
2020/12/29 05:01:55;;;;;;;10.13;6.47;;;7.50;80.40;;;;;;4991013;28;20026;-90
2020/12/29 05:04:23;;;;;;;10.55;6.68;;;7.60;80.40;;;;;;4991248;28;20042;-88
2020/12/29 05:06:49;;;;;;;10.20;6.82;;;7.60;80.40;;;;;;4989726;28;20018;-87
2020/12/29 05:09:20;;;;;;;12.02;6.95;;;7.60;80.30;;;;;;4987491;28;20037;-87
2020/12/29 05:11:46;;;;;;;;;;;7.60;80.50;;;;;;4991714;28;20038;-91
2020/12/29 05:14:11;;;;;;;10.32;6.78;;;7.70;80.60;;;;;;4990632;28;19910;-87
2020/12/29 05:16:41;;;;;;;13.00;7.45;;;7.60;80.90;;;;;;4990713;28;20022;-86
2020/12/29 05:19:15;;;;;;;10.60;7.28;;;7.60;81.30;;;;;;4989532;28;20105;-88
2020/12/29 05:21:42;;;;;;;11.73;7.57;;;7.70;81.00;;;;;;4991185;28;21635;-88
2020/12/29 05:24:22;;;;;;;14.15;7.50;;;7.70;81.40;;;;;;4973456;28;20046;-88
2020/12/29 05:26:52;;;;;;;9.48;6.32;;;7.70;81.40;;;;;;4988965;28;20383;-89
2020/12/29 05:29:20;;;;;;;11.27;7.45;;;7.70;81.40;;;;;;4989327;28;20073;-86
2020/12/29 05:31:46;;;;;;;16.50;7.50;;;7.70;81.20;;;;;;4989233;28;20106;-90
2020/12/29 05:34:26;;;;;;;9.30;6.45;;;7.70;81.10;;;;;;4989355;28;20117;-90
2020/12/29 05:36:53;;;;;;;9.77;6.72;;;7.70;81.10;;;;;;4983957;28;20045;-86
2020/12/29 05:39:20;;;;;;;9.70;7.28;;;7.80;80.90;;;;;;4987938;28;20044;-88
2020/12/29 05:41:48;;;;;;;10.40;6.85;;;7.80;80.60;;;;;;4990381;28;20022;-87
2020/12/29 05:44:26;;;;;;;9.27;6.15;;;7.80;80.80;;;;;;4989711;28;20037;-89
2020/12/29 05:46:52;;;;;;;7.75;5.93;;;7.80;80.30;;;;;;4988353;28;20030;-88
2020/12/29 05:49:22;;;;;;;8.20;6.00;;;7.90;80.00;;;;;;4987142;28;20092;-87
2020/12/29 05:51:49;;;;;;;9.40;6.30;;;7.90;80.10;;;;;;4990002;28;20022;-88
2020/12/29 05:54:17;;;;;;;10.70;6.88;;;8.00;79.80;;;;;;4988339;28;20391;-89
2020/12/29 05:56:43;;;;;;;8.95;5.65;;;7.90;79.60;;;;;;4990982;28;20117;-88
2020/12/29 05:59:12;;;;;;;7.88;5.93;;;8.00;79.60;;;;;;4973390;28;20397;-88
2020/12/29 06:01:41;;;;;;;8.75;6.35;;;8.00;79.10;;;;;;4989664;28;20069;-87
2020/12/29 06:04:08;;;;;;;9.00;6.82;;;8.10;79.60;;;;;;4990028;28;20486;-89
2020/12/29 06:06:35;;;;;;;9.65;6.00;;;8.10;79.20;;;;;;4988541;28;20025;-88
2020/12/29 06:09:10;;;;;;;10.10;6.45;;;8.10;79.80;;;;;;4988801;28;20022;-86
2020/12/29 06:11:37;;;;;;;8.88;6.18;;;8.00;80.10;;;;;;4991458;28;20065;-86
2020/12/29 06:14:08;;;;;;;9.35;6.10;;;8.00;80.40;;;;;;4989926;28;20113;-87
2020/12/29 06:16:38;;;;;;;7.97;5.50;;;8.00;80.40;;;;;;4986843;28;20494;-87
2020/12/29 06:19:17;;;;;;;7.35;5.38;;;8.00;80.70;;;;;;4988696;28;20081;-89
2020/12/29 06:21:50;;;;;;;7.50;5.57;;;8.00;80.00;;;;;;4981164;28;20037;-89
2020/12/29 06:24:18;;;;;;;9.80;6.50;;;8.10;80.00;;;;;;4987943;28;20039;-87
2020/12/29 06:26:47;;;;;;;7.75;5.63;;;8.10;80.60;;;;;;4985134;28;20015;-86
2020/12/29 06:29:20;;;;;;;9.57;5.18;;;8.10;80.80;;;;;;4990310;28;20164;-85
2020/12/29 06:31:46;;;;;;;7.53;5.38;;;8.10;81.00;;;;;;4990073;28;20026;-90
2020/12/29 06:34:17;;;;;;;9.73;6.03;;;8.10;81.50;;;;;;4988346;28;20103;-85
2020/12/29 06:36:44;;;;;;;7.20;5.32;;;8.10;81.90;;;;;;4988458;28;20042;-88
2020/12/29 06:39:13;;;;;;;9.20;5.93;;;8.00;81.60;;;;;;4988849;28;20034;-88
2020/12/29 06:41:40;;;;;;;10.57;5.43;;;8.10;81.70;;;;;;4970323;28;20407;-88
2020/12/29 06:44:06;;;;;;;7.35;5.38;;;8.10;81.30;;;;;;4985394;28;20133;-89
2020/12/29 06:46:32;;;;;;;8.48;5.70;;;8.10;81.10;;;;;;4976617;28;20101;-88
2020/12/29 06:49:17;;;;;;;8.32;5.47;;;8.10;80.90;;;;;;4992516;28;20498;-89
2020/12/29 06:51:43;;;;;;;9.07;5.60;;;8.10;80.40;;;;;;4992965;28;20050;-87
2020/12/29 06:54:08;;;;;;;9.63;5.63;;;8.10;79.80;;;;;;4991428;28;20105;-88
2020/12/29 06:56:57;;;;;;;13.15;6.53;;;8.10;80.10;;;;;;4994024;28;20034;-88
2020/12/29 06:59:23;;;;;;;7.13;5.47;;;8.10;80.30;;;;;;4993303;28;20033;-87
2020/12/29 07:01:50;;;;;;;10.25;5.93;;;8.10;80.60;;;;;;4990282;28;20113;-88
2020/12/29 07:04:15;;;;;;;8.20;5.93;;;8.10;81.20;;;;;;4973748;28;20122;-88
2020/12/29 07:06:41;;;;;;;7.55;5.55;;;8.10;80.90;;;;;;4987603;28;20551;-88
2020/12/29 07:09:07;;;;;;;8.68;6.10;;;8.10;81.30;;;;;;4993294;28;20109;-87
2020/12/29 07:11:32;;;;;;;10.93;5.72;;;8.10;82.30;;;;;;4976945;28;20038;-88
2020/12/29 07:14:05;;;;;;;9.30;5.90;;;8.00;81.20;;;;;;4992076;28;20022;-89
2020/12/29 07:16:31;;;;;;;9.57;6.20;;;8.00;81.30;;;;;;4991770;28;20058;-88
2020/12/29 07:19:10;;;;;;;8.93;6.05;;;8.00;82.40;;;;;;4987096;28;20385;-87
2020/12/29 07:21:36;;;;;;;7.78;5.75;;;8.00;83.70;;;;;;4989770;28;20023;-88
2020/12/29 07:24:06;;;;;;;8.82;6.20;;;8.00;84.30;;;;;;4989310;28;20036;-87
2020/12/29 07:26:40;;;;;;;11.90;7.23;;;8.00;85.70;;;;;;4995003;28;20036;-89
2020/12/29 07:29:07;;;;;;;10.63;6.13;;;7.90;86.70;;;;;;4991431;28;20057;-89
2020/12/29 07:31:39;;;;;;;10.73;6.57;;;7.90;87.80;;;;;;5003552;28;20026;-87
2020/12/29 07:34:10;;;;;;;9.00;6.63;;;7.80;88.20;;;;;;4990214;28;20446;-87
2020/12/29 07:36:47;;;;;;;11.20;7.38;;;7.70;88.60;;;;;;4991200;28;20046;-87
2020/12/29 07:39:15;;;;;;;9.70;7.43;;;7.70;88.90;;;;;;4991508;28;20121;-87
2020/12/29 07:41:42;;;;;;;8.50;6.75;;;7.60;89.10;;;;;;4986450;28;20659;-87
2020/12/29 07:44:08;;;;;;;9.15;6.80;;;7.60;90.10;;;;;;4995600;28;20398;-86
2020/12/29 07:46:34;;;;;;;8.90;6.15;;;7.60;90.20;;;;;;4968121;28;21345;-88
2020/12/29 07:49:00;;;;;;;9.95;6.97;;;7.50;90.30;;;;;;4987892;28;20038;-87
2020/12/29 07:51:26;;;;;;;9.48;6.80;;;7.50;90.30;;;;;;4989077;28;20022;-88
2020/12/29 07:53:53;;;;;;;12.85;8.13;;;7.50;90.50;;;;;;4990004;28;20031;-88
2020/12/29 07:56:19;;;;;;;9.57;6.80;;;7.50;90.70;;;;;;4990476;28;20038;-88
2020/12/29 07:58:45;;;;;;;9.75;7.07;;;7.50;90.50;;;;;;4988684;28;20027;-88
2020/12/29 08:01:14;;;;;;;11.65;7.50;;;7.50;91.10;;;;;;4988522;28;20033;-88
2020/12/29 08:03:51;;;;;;;15.05;7.53;;;7.40;90.70;;;;;;4983404;28;20043;-88
2020/12/29 08:06:17;;;;;;;11.05;7.47;;;7.40;91.00;;;;;;4988836;28;20509;-86
2020/12/29 08:08:43;;;;;;;11.45;7.70;;;7.40;90.90;;;;;;4990544;28;20061;-88
2020/12/29 08:11:09;;;;;;;10.98;6.82;;;7.40;91.00;;;;;;4991366;28;20026;-87
2020/12/29 08:13:34;;;;;;;10.93;7.47;;;7.40;91.30;;;;;;4989458;28;20054;-87
2020/12/29 08:16:01;;;;;;;11.27;7.65;;;7.40;91.10;;;;;;4988341;28;20031;-87
2020/12/29 08:18:26;;;;;;;12.13;7.68;;;7.40;91.30;;;;;;4990261;28;20026;-87
2020/12/29 08:20:54;;;;;;;9.95;7.35;;;7.40;91.20;;;;;;4990337;28;20034;-88
2020/12/29 08:23:29;;;;;;;12.10;7.50;;;7.40;91.30;;;;;;4973896;28;20549;-86
2020/12/29 08:25:58;;;;;;;12.23;7.72;;;7.40;91.50;;;;;;4985628;28;20027;-88
2020/12/29 08:28:26;;;;;;;12.02;7.47;;;7.40;91.50;;;;;;4987382;28;20371;-88
2020/12/29 08:30:53;;;;;;;10.20;7.05;;;7.40;91.50;;;;;;4991366;28;20026;-88
2020/12/29 08:33:21;;;;;;;11.60;7.45;;;7.40;91.80;;;;;;4985903;28;20053;-86
2020/12/29 08:35:50;;;;;;;10.88;7.25;;;7.40;91.90;;;;;;4989508;28;20050;-88
2020/12/29 08:38:35;;;;;;;10.15;7.25;;;7.40;91.80;;;;;;4990686;28;20045;-86
2020/12/29 08:41:13;;;;;;;13.48;7.85;;;7.40;91.80;;;;;;4991406;28;20042;-88
2020/12/29 08:43:46;;;;;;;10.38;7.22;;;7.40;92.10;;;;;;4989553;28;20038;-87
2020/12/29 08:46:15;;;;;;;10.35;7.25;;;7.40;92.10;;;;;;4987144;28;20363;-88
2020/12/29 08:48:52;;;;;;;10.27;7.65;;;7.40;92.20;;;;;;4980639;28;20092;-87
2020/12/29 08:51:19;;;;;;;12.05;7.03;;;7.40;92.30;;;;;;4990421;28;20066;-87
2020/12/29 08:53:45;;;;;;;10.13;6.57;;;7.40;92.40;;;;;;4990317;28;20034;-87
2020/12/29 08:56:41;;;;;;;9.43;7.38;;;7.40;92.50;;;;;;4974576;28;20390;-87
2020/12/29 08:59:22;;;;;;;11.70;7.22;;;7.40;92.70;;;;;;4976318;28;20039;-86
2020/12/29 09:01:55;;;;;;;10.88;6.70;;;7.30;92.80;;;;;;4989032;28;20632;-86
2020/12/29 09:04:28;;;;;;;10.00;6.53;;;7.40;92.80;;;;;;4988783;28;20048;-87
2020/12/29 09:06:57;;;;;;;12.68;7.18;;;7.40;92.90;;;;;;4981203;28;20043;-86
2020/12/29 09:09:23;;;;;;;13.00;6.68;;;7.30;93.10;;;;;;4981854;28;20432;-87
2020/12/29 09:12:03;;;;;;;10.07;7.07;;;7.30;93.00;;;;;;4971139;28;20035;-87
2020/12/29 09:14:28;;;;;;;11.20;7.22;;;7.40;93.10;;;;;;4983500;28;20027;-87
2020/12/29 09:17:05;;;;;;;9.25;6.40;;;7.40;93.20;;;;;;4969461;28;20033;-86
2020/12/29 09:19:31;;;;;;;8.50;6.90;;;7.40;93.20;;;;;;4983115;28;20026;-85
2020/12/29 09:22:13;;;;;;;11.20;6.28;;;7.40;93.20;;;;;;4969498;28;20033;-88
2020/12/29 09:24:51;;;;;;;7.72;5.95;;;7.30;93.20;;;;;;4988668;28;20052;-85
2020/12/29 09:27:30;;;;;;;11.20;5.95;;;7.40;93.30;;;;;;4960084;28;20031;-88
2020/12/29 09:29:57;;;;;;;8.13;6.22;;;7.40;93.30;;;;;;4986507;28;20038;-89
2020/12/29 09:32:24;;;;;;;8.43;6.13;;;7.40;93.30;;;;;;4991284;28;20125;-89
2020/12/29 09:34:50;;;;;;;8.68;5.65;;;7.40;93.30;;;;;;4988045;28;20045;-87
2020/12/29 09:37:17;;;;;;;7.53;5.45;;;7.40;93.40;;;;;;4988833;28;20543;-87
2020/12/29 09:39:43;;;;;;;9.07;5.63;;;7.40;93.20;;;;;;4989357;28;20034;-87
2020/12/29 09:42:09;;;;;;;9.85;5.75;;;7.40;93.20;;;;;;4988502;28;20590;-88
2020/12/29 09:44:34;;;;;;;8.85;6.13;;;7.40;93.20;;;;;;4991031;28;20121;-87
2020/12/29 09:47:00;;;;;;;9.32;5.25;;;7.40;93.20;;;;;;4990676;28;20192;-87
2020/12/29 09:49:26;;;;;;;9.43;5.22;;;7.40;93.20;;;;;;4989128;28;20061;-88
2020/12/29 09:51:55;;;;;;;6.63;4.80;;;7.40;93.10;;;;;;4989585;28;20077;-88
2020/12/29 09:54:21;;;;;;;5.63;4.38;;;7.40;93.10;;;;;;4989717;28;20397;-86
2020/12/29 09:56:47;;;;;;;5.90;4.22;;;7.40;93.30;;;;;;4979096;28;20093;-86
2020/12/29 09:59:12;;;;;;;6.38;4.07;;;7.40;93.30;;;;;;4990692;28;20442;-87
2020/12/29 10:01:38;;;;;;;6.68;4.25;;;7.50;93.30;;;;;;4982393;28;20042;-88
2020/12/29 10:04:04;;;;;;;6.25;4.53;;;7.50;93.20;;;;;;4981065;28;20069;-86
2020/12/29 10:06:30;;;;;;;6.25;4.68;;;7.50;93.20;;;;;;4986918;28;20030;-84
2020/12/29 10:08:56;;;;;;;7.35;4.28;;;7.50;93.20;;;;;;4987749;28;20034;-86
2020/12/29 10:11:24;;;;;;;8.05;5.22;;;7.50;93.20;;;;;;4971627;28;20106;-86
2020/12/29 10:13:50;;;;;;;6.40;4.40;;;7.50;93.30;;;;;;4986984;28;20039;-88
2020/12/29 10:16:15;;;;;;;10.88;4.88;;;7.50;93.30;;;;;;4988497;28;20094;-89
2020/12/29 10:18:41;;;;;;;6.40;4.38;;;7.50;93.60;;;;;;4989052;28;20413;-88
2020/12/29 10:21:07;;;;;;;8.55;3.55;;;7.50;93.30;;;;;;4986649;28;20482;-87
2020/12/29 10:23:32;;;;;;;6.90;3.97;;;7.60;93.30;;;;;;4992772;28;20472;-87
2020/12/29 10:25:58;;;;;;;4.63;3.05;;;7.50;93.20;;;;;;4991523;28;20486;-87
2020/12/29 10:28:24;;;;;;;6.40;3.65;;;7.50;93.20;;;;;;4990201;28;20487;-88
2020/12/29 10:30:49;;;;;;;4.93;3.20;;;7.50;93.10;;;;;;4991958;28;20022;-87
2020/12/29 10:33:15;;;;;;;5.30;3.25;;;7.50;93.00;;;;;;4991932;28;20030;-87
2020/12/29 10:35:41;;;;;;;3.15;2.40;;;7.50;93.00;;;;;;4991303;28;20085;-87
2020/12/29 10:38:06;;;;;;;3.40;2.53;;;7.50;92.90;;;;;;4992330;28;20038;-87
2020/12/29 10:40:32;;;;;;;4.55;2.83;;;7.40;92.90;;;;;;4989017;28;20085;-86
2020/12/29 10:42:58;;;;;;;4.13;2.00;;;7.40;92.80;;;;;;4990746;28;20080;-88
2020/12/29 10:45:23;;;;;;;3.22;1.70;;;7.40;92.10;;;;;;4990958;28;20026;-87
2020/12/29 10:47:49;;;;;;;3.72;2.30;;;7.20;91.80;;;;;;4994122;28;20031;-88
2020/12/29 10:50:14;;;;;;;2.97;1.75;;;7.20;91.40;;;;;;4992802;28;20042;-87
2020/12/29 10:52:40;;;;;;;3.60;2.30;;;7.00;91.70;;;;;;4994178;28;20019;-88
2020/12/29 10:55:06;;;;;;;4.00;2.13;;;6.90;91.90;;;;;;5002581;28;20026;-86
2020/12/29 10:57:34;;;;;;;4.68;2.20;;;6.80;91.90;;;;;;4991825;28;20054;-86
2020/12/29 11:00:00;;;;;;;3.85;2.13;;;6.80;92.00;;;;;;4991664;28;20503;-87
2020/12/29 11:02:27;;;;;;;3.78;2.40;;;6.70;92.10;;;;;;4994238;28;20026;-86
2020/12/29 11:04:52;;;;;;;3.45;2.10;;;6.70;92.10;;;;;;4994207;28;20117;-87
2020/12/29 11:07:18;;;;;;;3.80;2.25;;;6.50;92.00;;;;;;4987634;28;20113;-87
2020/12/29 11:09:44;;;;;;;5.32;2.67;;;6.50;92.10;;;;;;4992185;28;20054;-87
2020/12/29 11:12:09;;;;;;;5.55;2.40;;;6.40;92.20;;;;;;4991468;28;20031;-86
2020/12/29 11:14:35;;;;;;;3.28;1.90;;;6.40;92.30;;;;;;4992093;28;20023;-87
2020/12/29 11:17:00;;;;;;;3.50;1.90;;;6.30;92.10;;;;;;4992224;28;20030;-86
2020/12/29 11:19:26;;;;;;;4.05;2.50;;;6.30;92.30;;;;;;4989299;28;20025;-87
2020/12/29 11:21:52;;;;;;;3.80;2.47;;;6.20;92.30;;;;;;4991168;28;20442;-87
2020/12/29 11:24:17;;;;;;;5.35;3.05;;;6.20;92.30;;;;;;4989997;28;20248;-87
2020/12/29 11:26:44;;;;;;;4.57;2.60;;;6.20;92.40;;;;;;4992011;28;20034;-86
2020/12/29 11:29:10;;;;;;;6.13;3.75;;;6.10;92.30;;;;;;4993294;28;20150;-87
2020/12/29 11:31:36;;;;;;;3.88;2.58;;;6.10;92.60;;;;;;4990963;28;20088;-88
2020/12/29 11:34:01;;;;;;;5.53;3.20;;;6.10;92.70;;;;;;4990854;28;20437;-87
2020/12/29 11:36:27;;;;;;;5.22;3.40;;;6.10;92.70;;;;;;4998986;28;20370;-86
2020/12/29 11:38:53;;;;;;;6.40;3.90;;;6.10;92.70;;;;;;4976058;28;20446;-88
2020/12/29 11:41:18;;;;;;;6.95;4.10;;;6.10;92.50;;;;;;4994990;28;20068;-87
2020/12/29 11:43:44;;;;;;;5.28;4.00;;;6.00;92.40;;;;;;4992210;28;20073;-87
2020/12/29 11:46:10;;;;;;;5.60;3.90;;;6.10;92.50;;;;;;4976729;28;20050;-86
2020/12/29 11:48:36;;;;;;;5.85;4.43;;;6.10;92.70;;;;;;4993011;28;20026;-88
2020/12/29 11:51:03;;;;;;;6.88;4.18;;;6.00;92.80;;;;;;5006560;28;20387;-88
2020/12/29 11:53:29;;;;;;;6.68;5.07;;;6.10;92.80;;;;;;5008256;28;20473;-89
2020/12/29 11:55:55;;;;;;;6.45;4.68;;;6.00;92.80;;;;;;4997824;28;20117;-88
2020/12/29 11:58:21;;;;;;;7.30;5.47;;;6.00;93.00;;;;;;4990587;28;20386;-88
2020/12/29 12:00:46;;;;;;;8.55;5.35;;;6.00;92.80;;;;;;4991166;28;20113;-87
2020/12/29 12:03:12;;;;;;;10.43;6.05;;;6.00;93.00;;;;;;4991176;28;20393;-87
2020/12/29 12:05:37;;;;;;;8.32;6.28;;;6.10;93.00;;;;;;4993317;28;20105;-88
2020/12/29 12:08:03;;;;;;;8.60;6.40;;;6.00;93.00;;;;;;4992226;28;20394;-88
2020/12/29 12:10:29;;;;;;;10.05;6.60;;;6.00;93.00;;;;;;4973611;28;20062;-86
2020/12/29 12:12:55;;;;;;;12.13;7.53;;;6.00;93.00;;;;;;4992996;28;20022;-88
2020/12/29 12:15:20;;;;;;;10.07;7.00;;;6.00;92.90;;;;;;4991163;28;20026;-87
2020/12/29 12:17:46;;;;;;;12.05;7.78;;;6.00;93.00;;;;;;4992534;28;20034;-87
2020/12/29 12:20:12;;;;;;;10.40;7.80;;;6.10;93.10;;;;;;4992571;28;20057;-87
2020/12/29 12:22:37;;;;;;;13.18;8.30;;;6.10;93.10;;;;;;4992183;28;20387;-88
2020/12/29 12:25:03;;;;;;;11.27;7.70;;;6.10;93.00;;;;;;4990562;28;20147;-88
2020/12/29 12:27:29;;;;;;;11.60;8.13;;;6.20;92.50;;;;;;4990499;28;20027;-88
2020/12/29 12:29:55;;;;;;;13.25;8.25;;;6.20;92.60;;;;;;4991418;28;20034;-87
2020/12/29 12:32:21;;;;;;;13.25;9.60;;;6.20;92.60;;;;;;4975849;28;20458;-87
2020/12/29 12:34:47;;;;;;;15.23;8.68;;;6.20;92.60;;;;;;4990493;28;20370;-87
2020/12/29 12:37:13;;;;;;;11.10;7.90;;;6.20;92.00;;;;;;4989913;28;20124;-86
2020/12/29 12:39:41;;;;;;;12.07;8.75;;;6.20;92.10;;;;;;4975873;28;20439;-89
2020/12/29 12:42:08;;;;;;;14.50;9.20;;;6.20;92.00;;;;;;4989297;28;20467;-87
2020/12/29 12:44:39;;;;;;;13.55;8.60;;;6.20;91.80;;;;;;4992823;28;20070;-87
2020/12/29 12:47:06;;;;;;;13.02;9.13;;;6.20;91.90;;;;;;4990992;28;20018;-88
2020/12/29 12:49:32;;;;;;;13.55;8.38;;;6.20;91.80;;;;;;4990263;28;20386;-88
2020/12/29 12:51:58;;;;;;;12.80;8.70;;;6.10;91.70;;;;;;4975711;28;20018;-88
2020/12/29 12:54:23;;;;;;;12.38;8.25;;;6.10;91.60;;;;;;4992525;28;20161;-89
2020/12/29 12:56:55;;;;;;;12.32;7.68;;;6.10;91.80;;;;;;4991258;28;20041;-86